Airfield :
LOGIN :

Register | Disclaimer

   EN    FR    IT 

 










Legend :    VFR   Marginal VFR   IFR   Intensive IFR   Very Intensive IFR
Visi :
Ceiling :
>= 8 km
>= 3000ft
5 to 8 km
1000 to 3000 ft
1500m to 5 km
500 to 1000 ft
800 to 1500m
200 to 500 ft
< 800m
< 200 ft
Symbols :   Thunderstorms  Fog  Heavy snow  Heavy precipitations  Wind > 20 kt
SIGMETs :     Misc.  Thunderstorms  Icing  Turbulence  Mountain Waves  Volcanic Ashes






- Airport Elevation : 412 ft
- IATA code : ORE


LFOJ - Orleans

CURRENT METAR :
  • 201030Z AUTO 33005KT 290V010 CAVOK 15/04 Q1016 BECMG 04015KT

EXPIRED METARs :
  • 201000Z AUTO 33006KT 9999 SCT046 BKN140 16/05 Q1016 NOSIG
  • 200930Z AUTO VRB02KT CAVOK 17/05 Q1016 NOSIG
  • 200900Z AUTO VRB02KT 9999 ////// 15/06 Q1016
  • 200830Z AUTO VRB02KT //// R25///// // ////// 13/05 Q1016
  • 200800Z AUTO VRB02KT //// R25///// // NSC 10/05 Q1016

TAF TAF LFOJ
Valid from the 20 at 09:00 until the 21 at 09:00 UTC


200800Z 2009/2109 07005KT CAVOK TX17/2015Z TN05/2106Z
BECMG 2012/2014 04015KT



MET'MAP, your aeronautical weather chart ! - Copyright ORBIFLY December 2007 - Disclaimer

ORBIFLY MET'MAP TEAM :

Programming & Development : Alexandra Zaïnal
Concept & original design : Baudouin d'Aumeries
Assistance for programming : Marc-Olivier Méhu
Technical & hardware support : Manuel Goepfert

Contact : metmap@orbifly.com




SOURCES & CREDITS :

   NOAA